createdAt,value
2023-04-15T00:20:47.129Z,9.72
2023-04-15T00:50:50.526Z,9.52
2023-04-15T01:20:53.461Z,9.29
2023-04-15T01:50:57.078Z,9.07
2023-04-15T02:21:00.884Z,8.95
2023-04-15T02:51:04.176Z,8.86
2023-04-15T03:21:07.582Z,8.56
2023-04-15T03:51:10.762Z,8.17
2023-04-15T04:21:13.738Z,8.04
2023-04-15T04:51:17.137Z,7.86
2023-04-15T05:21:21.190Z,7.83
2023-04-15T05:51:24.405Z,7.88
2023-04-15T06:21:28.062Z,8.00
2023-04-15T06:51:31.227Z,8.12
2023-04-15T07:21:34.225Z,8.41
2023-04-15T07:51:37.673Z,8.62
2023-04-15T08:21:41.168Z,8.74
2023-04-15T08:51:44.434Z,9.04
2023-04-15T09:21:47.368Z,9.27
2023-04-15T09:52:01.658Z,9.34
2023-04-15T10:22:08.516Z,9.34
2023-04-15T10:52:11.968Z,9.06
2023-04-15T11:22:14.930Z,9.46
2023-04-15T11:52:18.240Z,9.39
2023-04-15T12:22:21.282Z,9.39
2023-04-15T12:52:24.541Z,9.42
2023-04-15T13:22:28.181Z,9.56
2023-04-15T13:52:31.699Z,9.65
2023-04-15T14:22:34.953Z,9.74
2023-04-15T14:52:38.349Z,9.90
2023-04-15T15:22:42.106Z,10.25
2023-04-15T15:52:45.745Z,10.31
2023-04-15T16:22:52.866Z,10.31
2023-04-15T16:52:55.796Z,10.41
2023-04-15T17:23:00.004Z,10.29
2023-04-15T17:53:02.853Z,9.82
2023-04-15T18:23:07.367Z,9.43
2023-04-15T18:53:10.268Z,9.11
2023-04-15T19:23:13.911Z,8.94
2023-04-15T19:53:16.884Z,9.06
2023-04-15T20:23:21.178Z,8.70
2023-04-15T20:53:24.070Z,8.40
2023-04-15T21:23:28.006Z,7.98
2023-04-15T21:53:30.964Z,7.97
2023-04-15T22:23:34.770Z,7.82
2023-04-15T22:53:38.274Z,7.52
2023-04-15T23:23:41.361Z,7.33
2023-04-15T23:53:44.282Z,7.48
